sensor_id;sensor_type;location;lat;lon;timestamp;pressure;altitude;pressure_sealevel;temperature;humidity
7109;BME280;29079;41.930;25.558;2022-12-29T00:02:07;100815.84;;;4.60;95.32
7109;BME280;29079;41.930;25.558;2022-12-29T00:04:40;100822.47;;;4.70;95.19
7109;BME280;29079;41.930;25.558;2022-12-29T00:07:14;100813.44;;;4.75;94.78
7109;BME280;29079;41.930;25.558;2022-12-29T00:09:48;100826.66;;;4.75;95.11
7109;BME280;29079;41.930;25.558;2022-12-29T00:12:24;100819.84;;;4.69;94.82
7109;BME280;29079;41.930;25.558;2022-12-29T00:15:18;100828.75;;;4.68;95.77
7109;BME280;29079;41.930;25.558;2022-12-29T00:18:09;100827.75;;;4.70;95.12
7109;BME280;29079;41.930;25.558;2022-12-29T00:20:42;100834.03;;;4.68;95.41
7109;BME280;29079;41.930;25.558;2022-12-29T00:23:33;100829.72;;;4.65;95.89
7109;BME280;29079;41.930;25.558;2022-12-29T00:26:23;100833.50;;;4.60;95.78
7109;BME280;29079;41.930;25.558;2022-12-29T00:29:15;100833.91;;;4.71;95.60
7109;BME280;29079;41.930;25.558;2022-12-29T00:32:06;100833.81;;;4.73;95.42
7109;BME280;29079;41.930;25.558;2022-12-29T00:34:59;100830.25;;;4.74;95.10
7109;BME280;29079;41.930;25.558;2022-12-29T00:37:43;100830.25;;;4.74;95.27
7109;BME280;29079;41.930;25.558;2022-12-29T00:40:36;100839.91;;;4.75;95.22
7109;BME280;29079;41.930;25.558;2022-12-29T00:43:27;100837.38;;;4.71;95.37
7109;BME280;29079;41.930;25.558;2022-12-29T00:46:19;100825.81;;;4.74;95.36
7109;BME280;29079;41.930;25.558;2022-12-29T00:48:52;100824.44;;;4.65;95.97
7109;BME280;29079;41.930;25.558;2022-12-29T00:51:43;100822.25;;;4.75;95.43
7109;BME280;29079;41.930;25.558;2022-12-29T00:54:18;100764.69;;;4.41;95.57
7109;BME280;29079;41.930;25.558;2022-12-29T00:56:52;100812.06;;;4.66;95.83
7109;BME280;29079;41.930;25.558;2022-12-29T00:59:25;100820.75;;;4.69;96.15
7109;BME280;29079;41.930;25.558;2022-12-29T01:02:00;100820.59;;;4.73;95.99
7109;BME280;29079;41.930;25.558;2022-12-29T01:04:36;100821.25;;;4.78;95.42
7109;BME280;29079;41.930;25.558;2022-12-29T01:07:10;100823.09;;;4.76;96.13
7109;BME280;29079;41.930;25.558;2022-12-29T01:09:43;100828.31;;;4.77;95.58
7109;BME280;29079;41.930;25.558;2022-12-29T01:12:35;100826.53;;;4.78;96.30
7109;BME280;29079;41.930;25.558;2022-12-29T01:15:17;100822.81;;;4.82;95.98
7109;BME280;29079;41.930;25.558;2022-12-29T01:17:52;100819.69;;;4.74;96.21
7109;BME280;29079;41.930;25.558;2022-12-29T01:20:26;100818.72;;;4.75;95.97
7109;BME280;29079;41.930;25.558;2022-12-29T01:23:00;100816.03;;;4.76;96.28
7109;BME280;29079;41.930;25.558;2022-12-29T01:25:34;100811.81;;;4.72;96.67
7109;BME280;29079;41.930;25.558;2022-12-29T01:28:07;100806.47;;;4.74;96.06
7109;BME280;29079;41.930;25.558;2022-12-29T01:30:40;100808.16;;;4.75;96.11
7109;BME280;29079;41.930;25.558;2022-12-29T01:33:15;100803.59;;;4.78;96.01
7109;BME280;29079;41.930;25.558;2022-12-29T01:35:49;100810.72;;;4.76;95.99
7109;BME280;29079;41.930;25.558;2022-12-29T01:38:22;100812.06;;;4.66;97.37
7109;BME280;29079;41.930;25.558;2022-12-29T01:40:56;100810.44;;;4.63;97.26
7109;BME280;29079;41.930;25.558;2022-12-29T01:43:39;100812.19;;;4.63;97.32
7109;BME280;29079;41.930;25.558;2022-12-29T01:46:21;100806.97;;;4.61;97.73
7109;BME280;29079;41.930;25.558;2022-12-29T01:49:04;100807.84;;;4.62;97.93
7109;BME280;29079;41.930;25.558;2022-12-29T01:51:41;100809.75;;;4.58;97.83
7109;BME280;29079;41.930;25.558;2022-12-29T01:54:22;100810.44;;;4.63;97.89
7109;BME280;29079;41.930;25.558;2022-12-29T01:56:59;100814.00;;;4.62;97.80
7109;BME280;29079;41.930;25.558;2022-12-29T01:59:36;100810.44;;;4.63;98.26
7109;BME280;29079;41.930;25.558;2022-12-29T02:02:11;100799.06;;;4.61;98.16
7109;BME280;29079;41.930;25.558;2022-12-29T02:04:46;100799.84;;;4.63;98.31
7109;BME280;29079;41.930;25.558;2022-12-29T02:07:23;100803.00;;;4.71;97.80
7109;BME280;29079;41.930;25.558;2022-12-29T02:09:59;100805.78;;;4.68;98.17
7109;BME280;29079;41.930;25.558;2022-12-29T02:12:35;100803.88;;;4.72;97.94
7109;BME280;29079;41.930;25.558;2022-12-29T02:15:09;100803.16;;;4.68;98.05
7109;BME280;29079;41.930;25.558;2022-12-29T02:17:57;100755.03;;;4.40;98.30
7109;BME280;29079;41.930;25.558;2022-12-29T02:21:04;100800.34;;;4.71;97.94
7109;BME280;29079;41.930;25.558;2022-12-29T02:24:05;100803.81;;;4.74;98.35
7109;BME280;29079;41.930;25.558;2022-12-29T02:26:57;100798.59;;;4.72;98.33
7109;BME280;29079;41.930;25.558;2022-12-29T02:30:07;100798.69;;;4.69;98.35
7109;BME280;29079;41.930;25.558;2022-12-29T02:32:49;100799.31;;;4.76;98.44
7109;BME280;29079;41.930;25.558;2022-12-29T02:35:36;100798.25;;;4.80;98.35
7109;BME280;29079;41.930;25.558;2022-12-29T02:38:16;100801.03;;;4.77;98.32
7109;BME280;29079;41.930;25.558;2022-12-29T02:41:00;100776.84;;;4.65;98.23
7109;BME280;29079;41.930;25.558;2022-12-29T02:43:40;100794.00;;;4.76;98.35
7109;BME280;29079;41.930;25.558;2022-12-29T02:46:19;100786.09;;;4.76;98.12
7109;BME280;29079;41.930;25.558;2022-12-29T02:49:06;100778.22;;;4.74;98.28
7109;BME280;29079;41.930;25.558;2022-12-29T02:51:50;100774.78;;;4.72;98.17
7109;BME280;29079;41.930;25.558;2022-12-29T02:54:24;100783.50;;;4.74;98.20
7109;BME280;29079;41.930;25.558;2022-12-29T02:57:29;100785.31;;;4.74;98.59
7109;BME280;29079;41.930;25.558;2022-12-29T03:00:06;100782.72;;;4.72;98.84
7109;BME280;29079;41.930;25.558;2022-12-29T03:05:59;100771.19;;;4.73;98.93
7109;BME280;29079;41.930;25.558;2022-12-29T03:08:40;100773.00;;;4.73;98.36
7109;BME280;29079;41.930;25.558;2022-12-29T03:11:17;100768.47;;;4.75;98.29
7109;BME280;29079;41.930;25.558;2022-12-29T03:14:16;100775.84;;;4.68;98.71
7109;BME280;29079;41.930;25.558;2022-12-29T03:17:21;100779.88;;;4.77;98.81
7109;BME280;29079;41.930;25.558;2022-12-29T03:20:00;100779.88;;;4.77;98.32
7109;BME280;29079;41.930;25.558;2022-12-29T03:22:39;100780.66;;;4.79;98.06
7109;BME280;29079;41.930;25.558;2022-12-29T03:25:17;100778.00;;;4.79;98.25
7109;BME280;29079;41.930;25.558;2022-12-29T03:27:55;100779.94;;;4.75;98.28
7109;BME280;29079;41.930;25.558;2022-12-29T03:30:31;100775.22;;;4.82;98.29
7109;BME280;29079;41.930;25.558;2022-12-29T03:33:09;100771.00;;;4.78;98.43
7109;BME280;29079;41.930;25.558;2022-12-29T03:35:44;100773.69;;;4.76;98.16
7109;BME280;29079;41.930;25.558;2022-12-29T03:38:23;100766.50;;;4.80;97.67
7109;BME280;29079;41.930;25.558;2022-12-29T03:41:00;100770.22;;;4.76;97.59
7109;BME280;29079;41.930;25.558;2022-12-29T03:43:36;100705.69;;;4.40;97.47
7109;BME280;29079;41.930;25.558;2022-12-29T03:46:10;100764.41;;;4.67;97.84
7109;BME280;29079;41.930;25.558;2022-12-29T03:48:43;100765.06;;;4.73;98.06
7109;BME280;29079;41.930;25.558;2022-12-29T03:51:17;100759.50;;;4.79;97.10
7109;BME280;29079;41.930;25.558;2022-12-29T03:53:51;100758.06;;;4.71;97.55
7109;BME280;29079;41.930;25.558;2022-12-29T03:56:25;100761.22;;;4.80;97.24
7109;BME280;29079;41.930;25.558;2022-12-29T03:58:58;100770.06;;;4.79;97.29
7109;BME280;29079;41.930;25.558;2022-12-29T04:01:32;100767.28;;;4.82;97.31
7109;BME280;29079;41.930;25.558;2022-12-29T04:04:05;100777.09;;;4.80;97.28
7109;BME280;29079;41.930;25.558;2022-12-29T04:06:39;100755.00;;;4.81;97.19
7109;BME280;29079;41.930;25.558;2022-12-29T04:09:13;100762.66;;;4.87;97.12
7109;BME280;29079;41.930;25.558;2022-12-29T04:11:49;100765.66;;;4.79;96.87
7109;BME280;29079;41.930;25.558;2022-12-29T04:14:23;100774.16;;;4.86;96.98
7109;BME280;29079;41.930;25.558;2022-12-29T04:16:58;100769.47;;;4.93;96.86
7109;BME280;29079;41.930;25.558;2022-12-29T04:19:31;100766.50;;;4.80;96.85
7109;BME280;29079;41.930;25.558;2022-12-29T04:22:05;100772.72;;;4.79;96.61
7109;BME280;29079;41.930;25.558;2022-12-29T04:24:39;100773.00;;;4.73;97.10
7109;BME280;29079;41.930;25.558;2022-12-29T04:27:13;100762.28;;;4.76;97.14
7109;BME280;29079;41.930;25.558;2022-12-29T04:29:46;100769.00;;;4.83;97.13
7109;BME280;29079;41.930;25.558;2022-12-29T04:32:19;100769.38;;;4.94;96.38
7109;BME280;29079;41.930;25.558;2022-12-29T04:34:53;100770.75;;;4.84;96.68
7109;BME280;29079;41.930;25.558;2022-12-29T04:37:26;100778.91;;;4.78;96.90
7109;BME280;29079;41.930;25.558;2022-12-29T04:40:01;100773.25;;;4.87;96.29
7109;BME280;29079;41.930;25.558;2022-12-29T04:42:34;100765.81;;;4.95;96.59
7109;BME280;29079;41.930;25.558;2022-12-29T04:45:08;100774.59;;;4.96;96.13
7109;BME280;29079;41.930;25.558;2022-12-29T04:47:42;100772.88;;;4.95;96.58
7109;BME280;29079;41.930;25.558;2022-12-29T04:50:16;100776.34;;;4.97;96.15
7109;BME280;29079;41.930;25.558;2022-12-29T04:52:49;100779.81;;;4.97;96.63
7109;BME280;29079;41.930;25.558;2022-12-29T04:55:24;100786.25;;;4.92;96.38
7109;BME280;29079;41.930;25.558;2022-12-29T04:57:58;100770.00;;;4.80;96.62
7109;BME280;29079;41.930;25.558;2022-12-29T05:00:31;100794.25;;;4.90;96.81
7109;BME280;29079;41.930;25.558;2022-12-29T05:03:04;100799.44;;;4.73;96.56
7109;BME280;29079;41.930;25.558;2022-12-29T05:05:40;100792.88;;;4.81;96.84
7109;BME280;29079;41.930;25.558;2022-12-29T05:08:14;100763.84;;;4.61;97.48
7109;BME280;29079;41.930;25.558;2022-12-29T05:10:49;100789.66;;;4.54;97.86
7109;BME280;29079;41.930;25.558;2022-12-29T05:13:24;100796.34;;;4.63;97.89
7109;BME280;29079;41.930;25.558;2022-12-29T05:15:58;100795.94;;;4.51;98.35
7109;BME280;29079;41.930;25.558;2022-12-29T05:18:34;100793.91;;;4.58;98.99
7109;BME280;29079;41.930;25.558;2022-12-29T05:21:08;100793.69;;;4.63;98.51
7109;BME280;29079;41.930;25.558;2022-12-29T05:23:41;100795.13;;;4.70;98.07
7109;BME280;29079;41.930;25.558;2022-12-29T05:26:16;100783.03;;;4.64;97.60
7109;BME280;29079;41.930;25.558;2022-12-29T05:28:49;100793.13;;;4.56;98.20
7109;BME280;29079;41.930;25.558;2022-12-29T05:31:23;100793.13;;;4.56;98.72
7109;BME280;29079;41.930;25.558;2022-12-29T05:33:56;100801.75;;;4.60;98.42
7109;BME280;29079;41.930;25.558;2022-12-29T05:36:30;100801.41;;;4.67;98.00
7109;BME280;29079;41.930;25.558;2022-12-29T05:39:09;100799.16;;;4.79;98.01
7109;BME280;29079;41.930;25.558;2022-12-29T05:41:44;100796.38;;;4.82;97.28
7109;BME280;29079;41.930;25.558;2022-12-29T05:44:17;100795.31;;;4.86;97.53
7109;BME280;29079;41.930;25.558;2022-12-29T05:46:51;100793.47;;;4.88;97.14
7109;BME280;29079;41.930;25.558;2022-12-29T05:49:24;100799.56;;;4.90;96.58
7109;BME280;29079;41.930;25.558;2022-12-29T05:51:58;100799.31;;;4.76;97.05
7109;BME280;29079;41.930;25.558;2022-12-29T05:54:32;100797.16;;;4.65;97.91
7109;BME280;29079;41.930;25.558;2022-12-29T05:57:07;100791.53;;;4.52;98.15
7109;BME280;29079;41.930;25.558;2022-12-29T05:59:41;100808.16;;;4.75;97.80
7109;BME280;29079;41.930;25.558;2022-12-29T06:02:15;100809.25;;;4.70;97.85
7109;BME280;29079;41.930;25.558;2022-12-29T06:04:49;100810.03;;;4.73;98.16
7109;BME280;29079;41.930;25.558;2022-12-29T06:07:22;100812.81;;;4.69;97.73
7109;BME280;29079;41.930;25.558;2022-12-29T06:09:56;100810.88;;;4.73;98.33
7109;BME280;29079;41.930;25.558;2022-12-29T06:12:31;100808.00;;;4.78;97.66
7109;BME280;29079;41.930;25.558;2022-12-29T06:15:06;100802.03;;;4.74;98.12
7109;BME280;29079;41.930;25.558;2022-12-29T06:17:41;100812.25;;;4.82;97.45
7109;BME280;29079;41.930;25.558;2022-12-29T06:20:14;100818.03;;;4.71;97.53
7109;BME280;29079;41.930;25.558;2022-12-29T06:22:48;100821.31;;;4.76;98.01
7109;BME280;29079;41.930;25.558;2022-12-29T06:25:21;100822.81;;;4.82;97.49
7109;BME280;29079;41.930;25.558;2022-12-29T06:27:56;100826.59;;;4.76;98.01
7109;BME280;29079;41.930;25.558;2022-12-29T06:30:29;100821.69;;;4.87;97.79
7109;BME280;29079;41.930;25.558;2022-12-29T06:33:03;100825.88;;;4.93;97.19
7109;BME280;29079;41.930;25.558;2022-12-29T06:35:36;100827.56;;;4.75;97.85
7109;BME280;29079;41.930;25.558;2022-12-29T06:38:10;100834.09;;;4.87;97.79
7109;BME280;29079;41.930;25.558;2022-12-29T06:40:43;100829.84;;;4.83;97.38
7109;BME280;29079;41.930;25.558;2022-12-29T06:43:19;100828.50;;;4.93;97.48
7109;BME280;29079;41.930;25.558;2022-12-29T06:45:52;100830.03;;;4.99;96.62
7109;BME280;29079;41.930;25.558;2022-12-29T06:48:25;100833.72;;;4.95;96.55
7109;BME280;29079;41.930;25.558;2022-12-29T06:50:58;100828.09;;;5.02;96.35
7109;BME280;29079;41.930;25.558;2022-12-29T06:53:32;100835.03;;;5.05;96.28
7109;BME280;29079;41.930;25.558;2022-12-29T06:56:06;100823.22;;;4.93;96.69
7109;BME280;29079;41.930;25.558;2022-12-29T06:58:41;100824.03;;;4.95;95.67
7109;BME280;29079;41.930;25.558;2022-12-29T07:01:14;100816.47;;;4.86;96.10
7109;BME280;29079;41.930;25.558;2022-12-29T07:03:48;100835.66;;;4.91;96.11
7109;BME280;29079;41.930;25.558;2022-12-29T07:06:21;100831.00;;;4.96;95.90
7109;BME280;29079;41.930;25.558;2022-12-29T07:08:55;100827.91;;;4.86;95.99
7109;BME280;29079;41.930;25.558;2022-12-29T07:11:29;100824.03;;;4.95;96.17
7109;BME280;29079;41.930;25.558;2022-12-29T07:14:05;100763.63;;;4.65;95.91
7109;BME280;29079;41.930;25.558;2022-12-29T07:16:39;100826.09;;;5.08;95.33
7109;BME280;29079;41.930;25.558;2022-12-29T07:19:13;100829.50;;;5.11;95.24
7109;BME280;29079;41.930;25.558;2022-12-29T07:21:46;100821.41;;;5.14;95.30
7109;BME280;29079;41.930;25.558;2022-12-29T07:24:20;100821.56;;;5.11;95.49
7109;BME280;29079;41.930;25.558;2022-12-29T07:26:53;100827.84;;;5.09;95.40
7109;BME280;29079;41.930;25.558;2022-12-29T07:29:28;100826.41;;;5.20;95.88
7109;BME280;29079;41.930;25.558;2022-12-29T07:32:01;100825.13;;;5.29;94.95
7109;BME280;29079;41.930;25.558;2022-12-29T07:34:35;100833.59;;;5.37;94.79
7109;BME280;29079;41.930;25.558;2022-12-29T07:37:08;100835.88;;;5.45;94.46
7109;BME280;29079;41.930;25.558;2022-12-29T07:39:42;100836.44;;;5.52;93.92
7109;BME280;29079;41.930;25.558;2022-12-29T07:42:15;100832.47;;;5.41;94.00
7109;BME280;29079;41.930;25.558;2022-12-29T07:44:50;100839.44;;;5.44;94.07
7109;BME280;29079;41.930;25.558;2022-12-29T07:47:23;100841.59;;;5.55;93.81
7109;BME280;29079;41.930;25.558;2022-12-29T07:49:57;100838.88;;;5.56;93.81
7109;BME280;29079;41.930;25.558;2022-12-29T07:52:30;100831.16;;;5.52;93.76
7109;BME280;29079;41.930;25.558;2022-12-29T07:55:05;100835.72;;;5.67;93.05
7109;BME280;29079;41.930;25.558;2022-12-29T07:57:38;100841.00;;;5.67;93.23
7109;BME280;29079;41.930;25.558;2022-12-29T08:00:14;100839.34;;;5.65;93.97
7109;BME280;29079;41.930;25.558;2022-12-29T08:02:48;100842.56;;;5.71;93.52
7109;BME280;29079;41.930;25.558;2022-12-29T08:05:21;100824.97;;;5.70;93.08
7109;BME280;29079;41.930;25.558;2022-12-29T08:07:55;100837.47;;;5.86;93.09
7109;BME280;29079;41.930;25.558;2022-12-29T08:10:28;100841.97;;;5.84;92.36
7109;BME280;29079;41.930;25.558;2022-12-29T08:13:03;100851.34;;;5.91;92.62
7109;BME280;29079;41.930;25.558;2022-12-29T08:15:38;100855.66;;;5.93;92.68
7109;BME280;29079;41.930;25.558;2022-12-29T08:18:13;100852.84;;;5.97;92.32
7109;BME280;29079;41.930;25.558;2022-12-29T08:20:46;100849.72;;;6.07;91.87
7109;BME280;29079;41.930;25.558;2022-12-29T08:23:26;100851.28;;;6.12;91.80
7109;BME280;29079;41.930;25.558;2022-12-29T08:26:00;100849.25;;;6.17;90.85
7109;BME280;29079;41.930;25.558;2022-12-29T08:28:34;100843.03;;;6.18;90.45
7109;BME280;29079;41.930;25.558;2022-12-29T08:31:09;100844.19;;;6.12;89.25
7109;BME280;29079;41.930;25.558;2022-12-29T08:33:43;100856.28;;;6.18;88.99
7109;BME280;29079;41.930;25.558;2022-12-29T08:36:16;100853.47;;;6.21;87.74
7109;BME280;29079;41.930;25.558;2022-12-29T08:38:50;100849.75;;;6.25;89.42
7109;BME280;29079;41.930;25.558;2022-12-29T08:41:24;100846.09;;;6.27;88.43
7109;BME280;29079;41.930;25.558;2022-12-29T08:43:57;100842.47;;;6.28;88.25
7109;BME280;29079;41.930;25.558;2022-12-29T08:46:32;100848.09;;;6.22;88.05
7109;BME280;29079;41.930;25.558;2022-12-29T08:49:05;100843.72;;;6.21;88.03
7109;BME280;29079;41.930;25.558;2022-12-29T08:51:39;100839.75;;;6.30;87.50
7109;BME280;29079;41.930;25.558;2022-12-29T08:54:12;100838.50;;;6.37;86.99
7109;BME280;29079;41.930;25.558;2022-12-29T08:56:46;100834.69;;;6.43;87.37
7109;BME280;29079;41.930;25.558;2022-12-29T08:59:19;100830.97;;;6.47;87.50
7109;BME280;29079;41.930;25.558;2022-12-29T09:01:54;100817.69;;;6.47;87.68
7109;BME280;29079;41.930;25.558;2022-12-29T09:04:27;100814.44;;;6.42;86.30
7109;BME280;29079;41.930;25.558;2022-12-29T09:07:01;100806.47;;;6.42;85.91
7109;BME280;29079;41.930;25.558;2022-12-29T09:09:35;100811.53;;;6.47;86.50
7109;BME280;29079;41.930;25.558;2022-12-29T09:12:09;100806.31;;;6.45;85.79
7109;BME280;29079;41.930;25.558;2022-12-29T09:14:43;100805.59;;;6.41;85.78
7109;BME280;29079;41.930;25.558;2022-12-29T09:17:20;100807.25;;;6.44;86.57
7109;BME280;29079;41.930;25.558;2022-12-29T09:20:13;100810.59;;;6.48;86.63
7109;BME280;29079;41.930;25.558;2022-12-29T09:22:47;100727.66;;;6.10;86.24
7109;BME280;29079;41.930;25.558;2022-12-29T09:25:21;100803.81;;;6.59;85.72
7109;BME280;29079;41.930;25.558;2022-12-29T09:27:56;100796.22;;;6.69;86.23
7109;BME280;29079;41.930;25.558;2022-12-29T09:30:29;100787.03;;;6.59;86.31
7109;BME280;29079;41.930;25.558;2022-12-29T09:33:04;100787.56;;;6.66;85.77
7109;BME280;29079;41.930;25.558;2022-12-29T09:35:41;100778.94;;;6.78;85.04
7109;BME280;29079;41.930;25.558;2022-12-29T09:38:15;100772.06;;;6.91;85.31
7109;BME280;29079;41.930;25.558;2022-12-29T09:40:50;100776.03;;;7.00;85.82
7109;BME280;29079;41.930;25.558;2022-12-29T09:43:46;100778.25;;;7.08;85.00
7109;BME280;29079;41.930;25.558;2022-12-29T09:46:26;100775.00;;;7.19;84.50
7109;BME280;29079;41.930;25.558;2022-12-29T09:49:08;100760.63;;;7.23;84.83
7109;BME280;29079;41.930;25.558;2022-12-29T09:51:46;100762.53;;;7.21;84.42
7109;BME280;29079;41.930;25.558;2022-12-29T09:54:30;100740.56;;;7.17;83.31
7109;BME280;29079;41.930;25.558;2022-12-29T09:57:13;100737.84;;;7.19;82.59
7109;BME280;29079;41.930;25.558;2022-12-29T09:59:49;100749.34;;;7.35;81.82
7109;BME280;29079;41.930;25.558;2022-12-29T10:02:31;100750.88;;;7.39;81.81
7109;BME280;29079;41.930;25.558;2022-12-29T10:05:20;100747.34;;;7.39;81.86
7109;BME280;29079;41.930;25.558;2022-12-29T10:08:05;100731.00;;;7.46;81.92
7109;BME280;29079;41.930;25.558;2022-12-29T10:10:54;100733.22;;;7.54;81.29
7109;BME280;29079;41.930;25.558;2022-12-29T10:13:37;100726.88;;;7.57;81.76
7109;BME280;29079;41.930;25.558;2022-12-29T10:16:20;100726.19;;;7.53;81.65
7109;BME280;29079;41.930;25.558;2022-12-29T10:19:13;100722.59;;;7.54;80.71
7109;BME280;29079;41.930;25.558;2022-12-29T10:22:00;100727.63;;;7.59;81.03
7109;BME280;29079;41.930;25.558;2022-12-29T10:24:39;100712.44;;;7.61;81.01
7109;BME280;29079;41.930;25.558;2022-12-29T10:27:16;100716.47;;;7.68;80.32
7109;BME280;29079;41.930;25.558;2022-12-29T10:29:55;100713.38;;;7.76;79.93
7109;BME280;29079;41.930;25.558;2022-12-29T10:32:32;100700.44;;;7.70;79.60
7109;BME280;29079;41.930;25.558;2022-12-29T10:35:12;100700.75;;;7.79;80.19
7109;BME280;29079;41.930;25.558;2022-12-29T10:37:53;100700.75;;;7.79;79.99
7109;BME280;29079;41.930;25.558;2022-12-29T10:40:33;100701.75;;;7.93;79.55
7109;BME280;29079;41.930;25.558;2022-12-29T10:43:17;100696.84;;;8.01;78.88
7109;BME280;29079;41.930;25.558;2022-12-29T10:45:57;100682.00;;;7.97;78.79
7109;BME280;29079;41.930;25.558;2022-12-29T10:48:33;100692.47;;;8.00;78.95
7109;BME280;29079;41.930;25.558;2022-12-29T10:51:07;100685.66;;;7.96;78.86
7109;BME280;29079;41.930;25.558;2022-12-29T10:53:46;100681.72;;;8.01;79.37
7109;BME280;29079;41.930;25.558;2022-12-29T10:56:29;100680.50;;;8.07;78.82
7109;BME280;29079;41.930;25.558;2022-12-29T10:59:13;100620.84;;;7.82;78.71
7109;BME280;29079;41.930;25.558;2022-12-29T11:01:57;100675.72;;;8.28;79.18
7109;BME280;29079;41.930;25.558;2022-12-29T11:04:43;100665.91;;;8.29;78.15
7109;BME280;29079;41.930;25.558;2022-12-29T11:07:20;100630.31;;;8.17;78.66
7109;BME280;29079;41.930;25.558;2022-12-29T11:10:18;100658.16;;;8.40;78.27
7109;BME280;29079;41.930;25.558;2022-12-29T11:12:57;100660.63;;;8.43;78.56
7109;BME280;29079;41.930;25.558;2022-12-29T11:15:39;100659.88;;;8.41;78.87
7109;BME280;29079;41.930;25.558;2022-12-29T11:18:21;100650.78;;;8.45;79.07
7109;BME280;29079;41.930;25.558;2022-12-29T11:20:57;100655.03;;;8.48;78.84
7109;BME280;29079;41.930;25.558;2022-12-29T11:23:33;100647.81;;;8.50;78.41
7109;BME280;29079;41.930;25.558;2022-12-29T11:26:17;100590.22;;;8.20;77.29
7109;BME280;29079;41.930;25.558;2022-12-29T11:29:20;100636.16;;;8.52;77.48
7109;BME280;29079;41.930;25.558;2022-12-29T11:31:55;100628.91;;;8.54;77.34
7109;BME280;29079;41.930;25.558;2022-12-29T11:34:32;100626.91;;;8.44;77.08
7109;BME280;29079;41.930;25.558;2022-12-29T11:37:11;100626.03;;;8.43;77.21
7109;BME280;29079;41.930;25.558;2022-12-29T11:39:50;100624.19;;;8.45;76.42
7109;BME280;29079;41.930;25.558;2022-12-29T11:42:35;100626.03;;;8.43;77.35
7109;BME280;29079;41.930;25.558;2022-12-29T11:45:15;100620.25;;;8.51;77.90
7109;BME280;29079;41.930;25.558;2022-12-29T11:47:51;100611.44;;;8.50;77.52
7109;BME280;29079;41.930;25.558;2022-12-29T11:50:28;100619.22;;;8.53;76.67
7109;BME280;29079;41.930;25.558;2022-12-29T11:53:05;100616.94;;;8.47;76.72
7109;BME280;29079;41.930;25.558;2022-12-29T11:55:40;100620.34;;;8.49;77.50
7109;BME280;29079;41.930;25.558;2022-12-29T11:58:15;100620.53;;;8.46;77.21
7109;BME280;29079;41.930;25.558;2022-12-29T12:00:49;100605.69;;;8.42;77.15
7109;BME280;29079;41.930;25.558;2022-12-29T12:03:25;100606.56;;;8.43;77.32
7109;BME280;29079;41.930;25.558;2022-12-29T12:06:01;100583.38;;;8.30;77.69
7109;BME280;29079;41.930;25.558;2022-12-29T12:08:38;100604.75;;;8.43;78.14
7109;BME280;29079;41.930;25.558;2022-12-29T12:11:15;100605.34;;;8.48;78.13
7109;BME280;29079;41.930;25.558;2022-12-29T12:13:58;100599.84;;;8.51;77.43
7109;BME280;29079;41.930;25.558;2022-12-29T12:16:35;100599.16;;;8.48;77.86
7109;BME280;29079;41.930;25.558;2022-12-29T12:19:14;100590.53;;;8.44;78.11
7109;BME280;29079;41.930;25.558;2022-12-29T12:21:58;100591.19;;;8.48;78.03
7109;BME280;29079;41.930;25.558;2022-12-29T12:24:37;100586.84;;;8.47;77.84
7109;BME280;29079;41.930;25.558;2022-12-29T12:27:17;100576.84;;;8.50;78.04
7109;BME280;29079;41.930;25.558;2022-12-29T12:29:59;100555.34;;;8.39;78.10
7109;BME280;29079;41.930;25.558;2022-12-29T12:32:41;100580.34;;;8.51;77.20
7109;BME280;29079;41.930;25.558;2022-12-29T12:35:24;100570.00;;;8.46;77.70
7109;BME280;29079;41.930;25.558;2022-12-29T12:38:19;100574.38;;;8.47;77.52
7109;BME280;29079;41.930;25.558;2022-12-29T12:41:03;100576.94;;;8.49;77.59
7109;BME280;29079;41.930;25.558;2022-12-29T12:43:44;100572.56;;;8.48;78.92
7109;BME280;29079;41.930;25.558;2022-12-29T12:46:37;100572.81;;;8.43;78.05
7109;BME280;29079;41.930;25.558;2022-12-29T12:49:39;100571.81;;;8.46;78.16
7109;BME280;29079;41.930;25.558;2022-12-29T12:52:22;100577.97;;;8.46;78.00
7109;BME280;29079;41.930;25.558;2022-12-29T12:55:15;100581.50;;;8.47;78.03
7109;BME280;29079;41.930;25.558;2022-12-29T12:57:56;100522.53;;;8.11;78.43
7109;BME280;29079;41.930;25.558;2022-12-29T13:00:39;100575.69;;;8.40;77.85
7109;BME280;29079;41.930;25.558;2022-12-29T13:03:23;100557.47;;;8.34;77.68
7109;BME280;29079;41.930;25.558;2022-12-29T13:06:12;100581.75;;;8.42;77.67
7109;BME280;29079;41.930;25.558;2022-12-29T13:09:01;100575.88;;;8.37;77.91
7109;BME280;29079;41.930;25.558;2022-12-29T13:11:47;100580.44;;;8.35;78.57
7109;BME280;29079;41.930;25.558;2022-12-29T13:14:34;100569.41;;;8.41;77.68
7109;BME280;29079;41.930;25.558;2022-12-29T13:17:18;100586.06;;;8.45;78.14
7109;BME280;29079;41.930;25.558;2022-12-29T13:20:02;100582.25;;;8.49;77.54
7109;BME280;29079;41.930;25.558;2022-12-29T13:22:47;100586.94;;;8.45;77.78
7109;BME280;29079;41.930;25.558;2022-12-29T13:25:33;100587.88;;;8.44;78.15
7109;BME280;29079;41.930;25.558;2022-12-29T13:28:16;100583.03;;;8.36;79.03
7109;BME280;29079;41.930;25.558;2022-12-29T13:31:00;100590.13;;;8.36;78.84
7109;BME280;29079;41.930;25.558;2022-12-29T13:33:42;100519.97;;;7.95;79.14
7109;BME280;29079;41.930;25.558;2022-12-29T13:36:23;100580.34;;;8.36;79.51
7109;BME280;29079;41.930;25.558;2022-12-29T13:39:02;100581.31;;;8.35;78.91
7109;BME280;29079;41.930;25.558;2022-12-29T13:41:42;100574.47;;;8.31;79.11
7109;BME280;29079;41.930;25.558;2022-12-29T13:44:21;100579.59;;;8.34;79.03
7109;BME280;29079;41.930;25.558;2022-12-29T13:46:56;100587.66;;;8.33;79.46
7109;BME280;29079;41.930;25.558;2022-12-29T13:49:32;100584.44;;;8.28;79.85
7109;BME280;29079;41.930;25.558;2022-12-29T13:52:13;100578.44;;;8.24;79.27
7109;BME280;29079;41.930;25.558;2022-12-29T13:54:57;100582.34;;;8.18;80.08
7109;BME280;29079;41.930;25.558;2022-12-29T13:57:40;100583.28;;;8.17;79.62
7109;BME280;29079;41.930;25.558;2022-12-29T14:00:20;100594.78;;;8.18;80.55
7109;BME280;29079;41.930;25.558;2022-12-29T14:03:17;100598.50;;;8.15;80.61